Time;durP1;ratioP1;P1;durP2;ratioP2;P2;SDS_P1;SDS_P2;PMS_P1;PMS_P2;Temp;Humidity;BMP_temperature;BMP_pressure;BME280_temperature;BME280_humidity;BME280_pressure;Samples;Min_cycle;Max_cycle;Signal;HPM_P1;HPM_P2
2022/01/11 00:00:07;;;;;;;4.18;2.55;;;;;;;-9.88;91.27;102987.47;5066850;28;20564;-80
2022/01/11 00:02:36;;;;;;;7.85;3.80;;;;;;;-9.95;91.14;102988.78;5053011;28;20152;-80
2022/01/11 00:05:01;;;;;;;7.35;3.60;;;;;;;-9.95;91.27;102986.13;5051165;28;20064;-80
2022/01/11 00:07:30;;;;;;;9.65;3.63;;;;;;;-9.91;90.94;102988.47;5052859;28;20491;-79
2022/01/11 00:09:57;;;;;;;6.78;3.50;;;;;;;-9.95;91.46;102980.78;5051109;28;20033;-80
2022/01/11 00:12:22;;;;;;;5.30;3.15;;;;;;;-9.96;91.46;102992.38;5051336;28;20043;-80
2022/01/11 00:14:48;;;;;;;8.32;3.90;;;;;;;-9.96;92.00;102989.72;5050796;28;20040;-80
2022/01/11 00:17:14;;;;;;;6.20;3.78;;;;;;;-10.02;91.68;102996.25;5050180;28;20044;-80
2022/01/11 00:19:39;;;;;;;7.80;4.50;;;;;;;-10.05;92.09;102991.97;5050769;28;20157;-80
2022/01/11 00:22:08;;;;;;;5.80;3.53;;;;;;;-10.04;91.56;102999.00;5051218;28;20032;-80
2022/01/11 00:24:36;;;;;;;6.55;3.63;;;;;;;-10.04;92.11;102993.69;5035142;28;20072;-80
2022/01/11 00:27:03;;;;;;;4.70;3.60;;;;;;;-9.98;91.33;102999.56;5050498;28;20503;-81
2022/01/11 00:29:31;;;;;;;8.45;4.00;;;;;;;-9.98;91.94;103000.44;5051751;28;20521;-81
2022/01/11 00:32:08;;;;;;;8.25;3.95;;;;;;;-9.95;91.82;103004.69;5066216;28;20033;-80
2022/01/11 00:34:48;;;;;;;5.90;3.45;;;;;;;-9.96;91.52;102995.88;5042398;28;20064;-81
2022/01/11 00:37:17;;;;;;;;;;;;;;;-10.01;91.70;103003.28;5049376;28;20041;-81
2022/01/11 00:39:45;;;;;;;6.57;3.17;;;;;;;-10.04;92.11;102998.16;5055130;28;19917;-81
2022/01/11 00:42:12;;;;;;;7.03;3.90;;;;;;;-10.08;91.87;103012.50;5051757;28;20190;-81
2022/01/11 00:44:38;;;;;;;6.85;3.65;;;;;;;-10.13;91.64;103014.59;5053532;28;20072;-81
2022/01/11 00:47:04;;;;;;;7.38;3.97;;;;;;;-10.15;92.38;103014.69;5051139;28;20068;-81
2022/01/11 00:49:32;;;;;;;8.25;3.53;;;;;;;-10.19;92.17;103022.91;5049027;28;20078;-81
2022/01/11 00:51:57;;;;;;;6.43;3.45;;;;;;;-10.20;91.86;103013.25;5031557;28;20456;-81
2022/01/11 00:54:23;;;;;;;6.72;3.55;;;;;;;-10.17;92.24;103029.00;5043587;28;20077;-81
2022/01/11 00:56:50;;;;;;;4.47;3.65;;;;;;;-10.18;92.21;103029.94;5050018;28;20454;-81
2022/01/11 00:59:15;;;;;;;4.85;3.53;;;;;;;-10.18;92.47;103025.47;5032636;28;20052;-81
2022/01/11 01:01:41;;;;;;;6.30;3.67;;;;;;;-10.18;92.24;103032.59;5035410;28;20086;-80
2022/01/11 01:04:07;;;;;;;8.40;4.20;;;;;;;-10.18;91.83;103030.78;5053554;28;20060;-80
2022/01/11 01:06:33;;;;;;;8.20;3.55;;;;;;;-10.18;92.36;103028.13;5042695;28;20037;-79
2022/01/11 01:08:59;;;;;;;5.78;3.63;;;;;;;-10.15;92.21;103038.56;5058740;28;20041;-80
2022/01/11 01:11:26;;;;;;;7.55;4.13;;;;;;;-10.14;91.54;103034.13;5050141;28;20037;-80
2022/01/11 01:13:52;;;;;;;8.38;3.83;;;;;;;-10.16;92.12;103041.31;5059674;28;20047;-80
2022/01/11 01:16:18;;;;;;;6.32;3.60;;;;;;;-10.20;92.56;103051.28;5057630;28;20037;-79
2022/01/11 01:18:50;;;;;;;8.70;4.47;;;;;;;-10.23;92.02;103046.16;5023153;28;20036;-80
2022/01/11 01:21:16;;;;;;;5.25;3.40;;;;;;;-10.28;91.87;103037.59;5064843;28;20147;-80
2022/01/11 01:23:42;;;;;;;5.15;3.53;;;;;;;-10.31;92.48;103045.72;5050374;28;20803;-79
2022/01/11 01:26:08;;;;;;;6.10;3.72;;;;;;;-10.32;91.53;103049.31;5058759;28;20083;-79
2022/01/11 01:28:34;;;;;;;6.13;3.70;;;;;;;-10.34;92.10;103051.22;5059981;28;20151;-79
2022/01/11 01:31:01;;;;;;;8.68;4.25;;;;;;;-10.30;91.92;103046.59;5040116;28;20035;-79
2022/01/11 01:33:30;;;;;;;7.63;4.13;;;;;;;-10.25;92.16;103045.38;5048770;28;20037;-79
2022/01/11 01:36:04;;;;;;;8.63;4.05;;;;;;;-10.20;92.01;103061.88;5040065;28;20663;-80
2022/01/11 01:38:32;;;;;;;6.30;3.88;;;;;;;-10.21;92.09;103060.22;5056580;28;20145;-80
2022/01/11 01:41:07;;;;;;;7.22;3.70;;;;;;;-10.24;91.78;103059.50;5059228;28;20470;-79
2022/01/11 01:43:37;;;;;;;6.55;4.00;;;;;;;-10.31;91.64;103055.50;5060153;28;20036;-79
2022/01/11 01:46:03;;;;;;;6.97;4.55;;;;;;;-10.29;92.24;103059.78;5059540;28;20037;-79
2022/01/11 01:48:29;;;;;;;10.40;4.75;;;;;;;-10.23;91.76;103063.91;5060151;28;20046;-80
2022/01/11 01:50:55;;;;;;;5.57;3.92;;;;;;;-10.15;92.22;103064.28;5065628;28;20083;-79
2022/01/11 01:53:21;;;;;;;8.63;4.20;;;;;;;-10.14;92.03;103065.97;5058532;28;20041;-80
2022/01/11 01:55:47;;;;;;;8.85;4.55;;;;;;;-10.11;92.38;103069.31;5057065;28;20123;-79
2022/01/11 01:58:14;;;;;;;9.50;5.13;;;;;;;-10.13;91.63;103073.00;5041297;28;20123;-79
2022/01/11 02:00:43;;;;;;;8.40;4.75;;;;;;;-10.17;92.28;103064.38;5065981;28;20036;-79
2022/01/11 02:03:14;;;;;;;7.22;4.15;;;;;;;-10.27;92.58;103059.69;5049225;28;20075;-79
2022/01/11 02:05:41;;;;;;;9.70;4.53;;;;;;;-10.31;91.60;103064.31;5056113;28;20163;-80
2022/01/11 02:08:07;;;;;;;7.72;4.38;;;;;;;-10.31;91.43;103066.97;5048912;28;20045;-79
2022/01/11 02:10:36;;;;;;;9.10;4.68;;;;;;;-10.29;92.64;103072.19;5059288;28;20032;-78
2022/01/11 02:13:02;;;;;;;5.80;4.07;;;;;;;-10.25;92.37;103069.25;5041241;28;20060;-79
2022/01/11 02:15:29;;;;;;;5.93;4.03;;;;;;;-10.25;92.33;103066.59;5060179;28;20040;-79
2022/01/11 02:17:54;;;;;;;6.53;4.00;;;;;;;-10.21;92.44;103069.97;5037255;28;20159;-79
2022/01/11 02:20:20;;;;;;;6.78;4.20;;;;;;;-10.21;91.79;103064.66;5038109;28;20578;-80
2022/01/11 02:22:46;;;;;;;7.82;4.10;;;;;;;-10.23;92.01;103067.41;5054712;28;20119;-80
2022/01/11 02:25:11;;;;;;;9.13;4.03;;;;;;;-10.21;91.76;103073.47;5046555;28;20703;-80
2022/01/11 02:27:37;;;;;;;5.63;3.60;;;;;;;-10.16;91.71;103067.88;5053202;28;20079;-80
2022/01/11 02:30:05;;;;;;;7.00;4.10;;;;;;;-10.16;92.30;103060.75;5048816;28;20028;-80
2022/01/11 02:32:31;;;;;;;7.90;3.78;;;;;;;-10.19;92.30;103068.91;5053007;28;20957;-80
2022/01/11 02:34:57;;;;;;;8.18;3.63;;;;;;;-10.17;91.99;103063.50;5039077;28;20131;-80
2022/01/11 02:37:24;;;;;;;7.75;3.83;;;;;;;-10.16;91.89;103068.72;5043964;28;20511;-79
2022/01/11 02:40:01;;;;;;;5.90;3.47;;;;;;;-10.15;92.67;103074.88;5041111;28;20048;-80
2022/01/11 02:42:32;;;;;;;5.72;3.70;;;;;;;-10.17;91.83;103080.28;5053213;28;20039;-81
2022/01/11 02:44:57;;;;;;;7.80;3.50;;;;;;;-10.20;91.98;103077.81;5053449;28;20127;-78
2022/01/11 02:47:26;;;;;;;5.43;3.00;;;;;;;-10.25;92.09;103079.88;5038858;28;20106;-79
2022/01/11 02:49:54;;;;;;;8.80;3.38;;;;;;;-10.25;91.87;103079.03;5040254;28;20295;-79
2022/01/11 02:52:25;;;;;;;6.13;3.80;;;;;;;-10.23;92.01;103088.66;5059444;28;20044;-79
2022/01/11 02:54:58;;;;;;;6.85;3.35;;;;;;;-10.24;92.66;103096.66;5057784;28;20594;-79
2022/01/11 02:57:24;;;;;;;5.60;3.70;;;;;;;-10.25;92.27;103090.50;5054981;28;20124;-79
2022/01/11 02:59:56;;;;;;;6.55;3.80;;;;;;;-10.24;92.57;103094.00;5058611;28;20044;-79
2022/01/11 03:02:23;;;;;;;6.50;3.78;;;;;;;-10.24;92.85;103086.91;5064640;28;20033;-79
2022/01/11 03:04:51;;;;;;;4.53;3.08;;;;;;;-10.22;92.13;103086.84;5040877;28;20037;-80
2022/01/11 03:07:20;;;;;;;5.22;2.92;;;;;;;-10.20;91.85;103088.44;5040778;28;20094;-79
2022/01/11 03:10:10;;;;;;;5.63;2.65;;;;;;;-10.22;92.48;103077.09;5056673;28;20106;-79
2022/01/11 03:12:45;;;;;;;4.13;2.70;;;;;;;-10.22;92.34;103068.25;5037957;28;20041;-79
2022/01/11 03:15:11;;;;;;;5.13;2.63;;;;;;;-10.26;92.59;103072.84;5037758;28;20040;-79
2022/01/11 03:17:38;;;;;;;6.72;2.80;;;;;;;-10.30;92.19;103070.47;5053387;28;20836;-79
2022/01/11 03:20:06;;;;;;;4.90;2.47;;;;;;;-10.32;92.59;103067.91;5056321;28;20072;-79
2022/01/11 03:22:31;;;;;;;3.78;2.50;;;;;;;-10.30;92.57;103076.63;5056185;28;20427;-80
2022/01/11 03:24:58;;;;;;;4.55;2.88;;;;;;;-10.33;92.40;103070.66;5038365;28;20028;-80
2022/01/11 03:27:24;;;;;;;7.53;3.67;;;;;;;-10.32;91.87;103069.72;5047215;28;20048;-80
2022/01/11 03:29:53;;;;;;;5.25;3.17;;;;;;;-10.38;91.98;103074.44;5040753;28;20178;-81
2022/01/11 03:32:19;;;;;;;6.60;3.78;;;;;;;-10.41;91.78;103074.59;5038367;28;20051;-79
2022/01/11 03:34:46;;;;;;;8.35;3.90;;;;;;;-10.41;91.72;103071.09;5039861;28;20052;-80
2022/01/11 03:37:16;;;;;;;6.80;4.00;;;;;;;-10.39;91.83;103082.47;5042369;28;20151;-80
2022/01/11 03:39:46;;;;;;;6.32;3.30;;;;;;;-10.39;91.77;103082.47;5034891;28;20202;-80
2022/01/11 03:42:11;;;;;;;;;;;;;;;-10.42;92.63;103095.88;5020237;28;20460;-79
2022/01/11 03:44:37;;;;;;;7.90;4.13;;;;;;;-10.49;91.76;103098.03;5053098;28;19920;-79
2022/01/11 03:47:03;;;;;;;8.00;4.00;;;;;;;-10.51;91.51;103091.97;5053152;28;20041;-80
2022/01/11 03:49:30;;;;;;;6.65;4.13;;;;;;;-10.54;92.11;103099.25;5039713;28;20086;-79
2022/01/11 03:51:56;;;;;;;6.60;3.95;;;;;;;-10.56;92.14;103095.81;5067520;28;20036;-79
2022/01/11 03:54:27;;;;;;;6.43;4.13;;;;;;;-10.54;92.09;103099.25;5066932;28;20475;-80
2022/01/11 03:57:12;;;;;;;4.82;3.45;;;;;;;-10.51;92.27;103102.56;5040986;28;20065;-79
2022/01/11 03:59:41;;;;;;;5.97;3.72;;;;;;;-10.53;91.68;103107.13;5051069;28;20075;-79
2022/01/11 04:02:07;;;;;;;7.75;4.57;;;;;;;-10.51;92.27;103107.03;5033594;28;20061;-79
2022/01/11 04:04:33;;;;;;;4.80;3.10;;;;;;;-10.48;91.42;103106.84;5033269;28;20674;-78
2022/01/11 04:07:02;;;;;;;7.50;3.72;;;;;;;-10.48;92.13;103105.06;5032987;28;20040;-77
2022/01/11 04:09:29;;;;;;;5.53;3.38;;;;;;;-10.52;91.45;103119.44;5066769;28;20110;-78
2022/01/11 04:11:55;;;;;;;6.75;4.43;;;;;;;-10.53;91.81;103124.81;5065914;28;20538;-79
2022/01/11 04:14:22;;;;;;;5.97;4.00;;;;;;;-10.55;92.04;103129.38;5049787;28;20101;-78
2022/01/11 04:16:48;;;;;;;7.70;4.18;;;;;;;-10.65;91.96;103121.88;5058633;28;20048;-79
2022/01/11 04:19:14;;;;;;;9.18;4.80;;;;;;;-10.67;91.97;103125.56;5062898;28;20041;-79
2022/01/11 04:21:40;;;;;;;7.20;4.63;;;;;;;-10.65;91.61;103127.19;5016242;28;20423;-78
2022/01/11 04:24:08;;;;;;;9.18;5.25;;;;;;;-10.66;91.51;103127.28;5067306;28;20036;-79
2022/01/11 04:26:34;;;;;;;9.73;5.53;;;;;;;-10.72;91.57;103124.97;5060064;28;20033;-78
2022/01/11 04:29:04;;;;;;;9.40;5.85;;;;;;;-10.74;91.41;103122.41;5038306;28;20044;-78
2022/01/11 04:31:30;;;;;;;10.32;5.57;;;;;;;-10.76;91.94;103124.28;5032689;28;20049;-78
2022/01/11 04:33:55;;;;;;;8.98;5.53;;;;;;;-10.77;92.05;103125.19;5032583;28;20388;-78
2022/01/11 04:36:21;;;;;;;8.15;5.43;;;;;;;-10.75;92.00;103123.34;5032747;28;20040;-78
2022/01/11 04:38:47;;;;;;;8.43;5.13;;;;;;;-10.76;91.24;103128.69;5049357;28;20037;-78
2022/01/11 04:41:14;;;;;;;8.20;5.05;;;;;;;-10.76;91.94;103126.94;5053906;28;20393;-78
2022/01/11 04:43:44;;;;;;;6.78;4.53;;;;;;;-10.77;91.53;103125.19;5039619;28;20454;-79
2022/01/11 04:46:09;;;;;;;7.97;4.55;;;;;;;-10.83;92.31;103130.81;5056096;28;20503;-79
2022/01/11 04:48:35;;;;;;;7.30;4.55;;;;;;;-10.89;91.58;103125.84;5072732;28;20033;-79
2022/01/11 04:51:04;;;;;;;7.32;5.00;;;;;;;-10.90;92.03;103118.84;5023239;28;20052;-77
2022/01/11 04:53:29;;;;;;;7.60;4.90;;;;;;;-10.90;91.62;103128.59;5072032;28;20070;-79
2022/01/11 04:55:56;;;;;;;7.72;5.28;;;;;;;-10.92;91.61;103125.16;5051670;28;20098;-78
2022/01/11 04:58:23;;;;;;;7.47;5.10;;;;;;;-11.04;91.66;103137.25;5056087;28;20033;-80
2022/01/11 05:00:49;;;;;;;8.32;5.32;;;;;;;-11.11;91.30;103126.09;5055767;28;20527;-79
2022/01/11 05:03:18;;;;;;;7.20;5.07;;;;;;;-11.12;91.71;103135.00;5039026;28;20055;-79
2022/01/11 05:05:46;;;;;;;7.75;5.20;;;;;;;-11.11;91.70;103131.41;5055024;28;20033;-79
2022/01/11 05:08:14;;;;;;;7.55;5.20;;;;;;;-11.06;92.09;103131.19;5039009;28;20465;-79
2022/01/11 05:10:42;;;;;;;8.23;5.63;;;;;;;-11.04;91.32;103127.50;5056005;28;20037;-79
2022/01/11 05:13:12;;;;;;;8.52;5.65;;;;;;;-11.05;91.41;103136.41;5055739;28;20094;-79
2022/01/11 05:15:39;;;;;;;9.27;5.82;;;;;;;-11.02;91.96;103135.38;5054888;28;20056;-79
2022/01/11 05:18:06;;;;;;;8.48;5.43;;;;;;;-11.02;91.57;103130.94;5055388;28;20426;-79
2022/01/11 05:20:34;;;;;;;8.35;5.15;;;;;;;-10.99;92.03;103135.22;5055585;28;20525;-79
2022/01/11 05:23:00;;;;;;;9.25;5.75;;;;;;;-10.95;91.65;103131.47;5055000;28;20593;-79
2022/01/11 05:25:26;;;;;;;9.80;5.97;;;;;;;-10.94;91.80;103135.81;5055526;28;20056;-79
2022/01/11 05:27:51;;;;;;;9.18;6.28;;;;;;;-10.96;91.09;103133.25;5033236;28;20037;-79
2022/01/11 05:30:20;;;;;;;10.70;7.03;;;;;;;-10.98;91.91;103129.84;5049149;28;20577;-80
2022/01/11 05:32:48;;;;;;;10.98;6.72;;;;;;;-10.99;91.83;103129.91;5055415;28;20036;-79
2022/01/11 05:35:14;;;;;;;12.57;6.80;;;;;;;-11.03;91.94;103128.38;5055276;28;20059;-79
2022/01/11 05:37:40;;;;;;;8.57;5.88;;;;;;;-11.02;91.63;103130.09;5056304;28;20040;-79
2022/01/11 05:40:07;;;;;;;11.02;6.47;;;;;;;-10.99;91.65;103145.81;5055249;28;20063;-80
2022/01/11 05:42:33;;;;;;;11.50;7.45;;;;;;;-10.99;91.57;103151.13;5038322;28;20497;-79
2022/01/11 05:44:59;;;;;;;11.27;7.05;;;;;;;-11.04;91.55;103147.88;5071833;28;20060;-80
2022/01/11 05:47:25;;;;;;;10.57;7.00;;;;;;;-11.06;92.23;103141.78;5055182;28;20040;-79
2022/01/11 05:49:50;;;;;;;10.77;7.18;;;;;;;-11.08;91.61;103143.66;5038852;28;20480;-79
2022/01/11 05:52:16;;;;;;;9.32;6.18;;;;;;;-11.11;92.02;103144.66;5052465;28;20510;-79
2022/01/11 05:54:42;;;;;;;12.10;7.07;;;;;;;-11.15;91.21;103150.19;5068698;28;20041;-79
2022/01/11 05:57:08;;;;;;;13.07;7.25;;;;;;;-11.21;91.63;103159.34;5051357;28;20044;-79
2022/01/11 05:59:33;;;;;;;15.60;7.82;;;;;;;-11.28;91.88;103161.44;5035219;28;20071;-78
2022/01/11 06:01:59;;;;;;;12.95;7.40;;;;;;;-11.35;91.75;103157.38;5068049;28;20127;-80
2022/01/11 06:04:25;;;;;;;12.43;7.40;;;;;;;-11.37;91.63;103163.69;5051766;28;20131;-79
2022/01/11 06:06:51;;;;;;;11.80;7.40;;;;;;;-11.39;91.92;103161.13;5021777;28;20030;-80
2022/01/11 06:09:17;;;;;;;11.43;7.22;;;;;;;-11.42;91.21;103163.94;5033021;28;20570;-79
2022/01/11 06:11:43;;;;;;;12.80;7.78;;;;;;;-11.44;91.09;103163.16;5043275;28;20040;-79
2022/01/11 06:14:08;;;;;;;13.32;7.63;;;;;;;-11.47;91.13;103165.94;5035410;28;20040;-79
2022/01/11 06:16:34;;;;;;;13.25;7.95;;;;;;;-11.49;91.36;103175.75;5035390;28;20495;-80
2022/01/11 06:19:01;;;;;;;13.13;8.18;;;;;;;-11.51;91.16;103174.13;5034688;28;20064;-81
2022/01/11 06:21:47;;;;;;;13.82;7.90;;;;;;;-11.48;91.36;103179.25;5047785;28;20048;-80
2022/01/11 06:24:13;;;;;;;11.77;7.93;;;;;;;-11.50;91.25;103175.81;5048819;28;20041;-79
2022/01/11 06:26:38;;;;;;;13.63;8.20;;;;;;;-11.49;91.01;103181.03;5034945;28;20041;-79
2022/01/11 06:29:04;;;;;;;14.15;7.32;;;;;;;-11.49;91.45;103178.41;5068012;28;20047;-79
2022/01/11 06:31:33;;;;;;;11.55;7.80;;;;;;;-11.49;91.51;103183.69;5051455;28;20037;-79
2022/01/11 06:33:58;;;;;;;13.02;7.50;;;;;;;-11.50;90.98;103176.69;5034674;28;20048;-80
2022/01/11 06:36:24;;;;;;;15.13;8.57;;;;;;;-11.48;90.66;103181.91;5068219;28;20037;-80
2022/01/11 06:38:51;;;;;;;13.95;7.63;;;;;;;-11.49;91.27;103177.53;5034657;28;20507;-79
2022/01/11 06:41:23;;;;;;;13.90;8.68;;;;;;;-11.47;90.86;103188.91;5034921;28;20041;-79
2022/01/11 06:43:50;;;;;;;14.98;8.05;;;;;;;-11.46;91.32;103191.47;5051495;28;20044;-80
2022/01/11 06:46:16;;;;;;;13.48;8.05;;;;;;;-11.45;91.50;103190.59;5050623;28;20553;-80
2022/01/11 06:48:42;;;;;;;13.10;8.13;;;;;;;-11.43;91.07;103177.25;5060066;28;20091;-79
2022/01/11 06:51:09;;;;;;;16.10;8.15;;;;;;;-11.42;90.71;103182.47;5050866;28;20037;-80
2022/01/11 06:53:42;;;;;;;16.13;8.18;;;;;;;-11.42;91.53;103184.28;5050688;28;20029;-79
2022/01/11 06:56:08;;;;;;;13.98;8.20;;;;;;;-11.46;91.26;103182.69;5050444;28;20043;-79
2022/01/11 06:58:34;;;;;;;15.60;8.55;;;;;;;-11.47;90.79;103183.63;5050609;28;20037;-80
2022/01/11 07:01:06;;;;;;;12.52;7.88;;;;;;;-11.48;91.58;103197.81;5050767;28;20132;-79
2022/01/11 07:03:32;;;;;;;16.70;8.50;;;;;;;-11.50;91.56;103195.22;5050514;28;20065;-78
2022/01/11 07:06:18;;;;;;;14.88;8.90;;;;;;;-11.49;91.06;103204.88;5052159;28;20102;-80
2022/01/11 07:08:44;;;;;;;14.65;9.43;;;;;;;-11.52;91.59;103205.03;5067600;28;20044;-79
2022/01/11 07:11:12;;;;;;;16.30;8.77;;;;;;;-11.57;91.01;103204.41;5034201;28;20503;-79
2022/01/11 07:13:37;;;;;;;17.58;9.13;;;;;;;-11.58;91.74;103208.88;5034257;28;20037;-79
2022/01/11 07:16:04;;;;;;;15.60;8.85;;;;;;;-11.60;91.06;103201.94;5033630;28;20140;-79
2022/01/11 07:18:30;;;;;;;15.70;9.02;;;;;;;-11.61;90.90;103208.16;5065057;28;20044;-81
2022/01/11 07:20:59;;;;;;;20.83;9.32;;;;;;;-11.61;90.89;103221.41;5063443;28;20108;-80
2022/01/11 07:23:27;;;;;;;17.27;9.23;;;;;;;-11.58;91.59;103216.81;5033848;28;20521;-80
2022/01/11 07:25:53;;;;;;;15.93;8.95;;;;;;;-11.54;91.18;103206.91;5033662;28;20032;-79
2022/01/11 07:28:23;;;;;;;15.70;9.15;;;;;;;-11.54;91.25;103211.34;5067046;28;20041;-80
2022/01/11 07:30:54;;;;;;;15.88;9.02;;;;;;;-11.54;90.89;103222.81;5049929;28;20044;-79
2022/01/11 07:33:21;;;;;;;16.23;9.00;;;;;;;-11.56;90.66;103216.72;5050294;28;20048;-81
2022/01/11 07:35:49;;;;;;;14.70;8.43;;;;;;;-11.59;91.33;103223.03;5049947;28;20273;-79
2022/01/11 07:38:15;;;;;;;17.38;8.70;;;;;;;-11.64;90.71;103225.03;5049904;28;20139;-80
2022/01/11 07:40:41;;;;;;;18.20;9.57;;;;;;;-11.63;91.62;103220.59;5050335;28;20079;-79
2022/01/11 07:43:35;;;;;;;15.68;8.40;;;;;;;-11.65;90.86;103223.31;5049961;28;20037;-79
2022/01/11 07:46:11;;;;;;;15.55;8.45;;;;;;;-11.69;90.67;103224.41;5066644;28;20044;-79
2022/01/11 07:48:43;;;;;;;15.48;8.43;;;;;;;-11.67;90.76;103226.97;5066218;28;20041;-79
2022/01/11 07:51:10;;;;;;;15.50;8.63;;;;;;;-11.60;90.89;103231.06;5049852;28;20132;-79
2022/01/11 07:53:36;;;;;;;15.98;8.68;;;;;;;-11.55;91.01;103226.41;5050016;28;20067;-79
2022/01/11 07:56:07;;;;;;;16.30;8.95;;;;;;;-11.56;91.27;103230.84;5033065;28;20060;-79
2022/01/11 07:58:33;;;;;;;14.00;8.55;;;;;;;-11.52;91.15;103231.53;5039348;28;20045;-79
2022/01/11 08:00:58;;;;;;;15.00;7.68;;;;;;;-11.53;90.80;103240.41;5027462;28;20384;-79
2022/01/11 08:03:31;;;;;;;15.80;9.48;;;;;;;-11.53;91.09;103245.72;5050344;28;20040;-79
2022/01/11 08:06:04;;;;;;;17.75;8.43;;;;;;;-11.49;91.06;103238.47;5066062;28;20029;-79
2022/01/11 08:08:31;;;;;;;18.30;7.68;;;;;;;-11.55;91.13;103242.28;5032975;28;20064;-79
2022/01/11 08:10:59;;;;;;;14.48;7.70;;;;;;;-11.52;91.30;103238.63;5066646;28;20045;-79
2022/01/11 08:13:26;;;;;;;13.55;6.65;;;;;;;-11.50;90.81;103250.00;5049491;28;20060;-80
2022/01/11 08:15:52;;;;;;;14.18;7.40;;;;;;;-11.47;90.44;103247.19;5048793;28;20040;-79
2022/01/11 08:18:18;;;;;;;13.90;7.78;;;;;;;-11.49;90.77;103241.13;5066601;28;20083;-79
2022/01/11 08:20:45;;;;;;;11.27;7.10;;;;;;;-11.52;90.52;103247.44;5017279;28;20094;-80
2022/01/11 08:23:12;;;;;;;14.68;7.18;;;;;;;-11.50;90.58;103250.00;5009332;28;20504;-79
2022/01/11 08:25:39;;;;;;;12.68;6.25;;;;;;;-11.51;90.30;103243.84;5025765;28;20034;-79
2022/01/11 08:28:06;;;;;;;10.77;7.07;;;;;;;-11.56;90.48;103244.06;5009495;28;20038;-79
2022/01/11 08:30:34;;;;;;;15.40;7.43;;;;;;;-11.53;90.71;103252.81;5042038;28;20523;-79
2022/01/11 08:33:04;;;;;;;13.15;6.93;;;;;;;-11.53;90.74;103258.97;5040629;28;20069;-79
2022/01/11 08:35:32;;;;;;;13.18;7.55;;;;;;;-11.50;90.13;103250.00;5041455;28;20192;-79
2022/01/11 08:37:58;;;;;;;15.73;9.15;;;;;;;-11.53;90.34;103245.72;5007563;28;20045;-79
2022/01/11 08:40:25;;;;;;;15.52;8.63;;;;;;;-11.53;90.16;103253.66;5007072;28;20120;-78
2022/01/11 08:42:56;;;;;;;16.23;8.38;;;;;;;-11.53;90.35;103251.00;5042242;28;20042;-78
2022/01/11 08:45:22;;;;;;;16.23;8.18;;;;;;;-11.57;90.11;103242.38;5009161;28;20100;-79
2022/01/11 08:47:50;;;;;;;15.80;8.43;;;;;;;-11.72;90.08;103251.03;5026111;28;20050;-77
2022/01/11 08:50:16;;;;;;;14.45;7.68;;;;;;;-11.77;90.13;103249.53;4993237;28;20296;-82
2022/01/11 08:52:45;;;;;;;14.75;7.25;;;;;;;-11.76;89.72;103246.81;4993682;28;20038;-85
2022/01/11 08:55:16;;;;;;;15.18;7.28;;;;;;;-11.77;89.51;103249.53;5009322;28;20069;-85
2022/01/11 08:57:42;;;;;;;13.70;6.82;;;;;;;-11.76;90.22;103248.63;5025866;28;20562;-85
2022/01/11 09:00:16;;;;;;;16.02;6.85;;;;;;;-11.76;90.19;103253.91;5026075;28;20045;-84
2022/01/11 09:02:46;;;;;;;15.77;7.55;;;;;;;-11.74;89.78;103252.03;5005275;28;20133;-83
2022/01/11 09:05:16;;;;;;;16.92;6.47;;;;;;;-11.75;90.22;103253.84;5024177;28;20610;-79
2022/01/11 09:07:41;;;;;;;10.82;6.20;;;;;;;-11.74;89.68;103252.91;4992303;28;20045;-80
2022/01/11 09:10:08;;;;;;;11.38;6.18;;;;;;;-11.80;89.91;103255.00;5013045;28;20045;-80
2022/01/11 09:12:34;;;;;;;13.38;7.00;;;;;;;-11.86;89.86;103256.16;5050779;28;20034;-80
2022/01/11 09:15:01;;;;;;;14.48;6.82;;;;;;;-11.86;89.83;103258.78;5026044;28;20136;-81
2022/01/11 09:17:27;;;;;;;16.13;7.53;;;;;;;-11.81;89.18;103250.63;5004866;28;20097;-80
2022/01/11 09:19:54;;;;;;;12.18;6.43;;;;;;;-11.78;89.73;103259.28;5008947;28;20049;-77
2022/01/11 09:22:20;;;;;;;13.57;6.85;;;;;;;-11.77;89.39;103253.06;5025619;28;20458;-78
2022/01/11 09:24:47;;;;;;;13.70;6.88;;;;;;;-11.77;89.38;103253.06;4997760;28;20037;-79
2022/01/11 09:27:16;;;;;;;15.05;6.95;;;;;;;-11.77;89.70;103252.19;5028142;28;20037;-78
2022/01/11 09:29:43;;;;;;;14.60;6.63;;;;;;;-11.77;89.23;103252.19;5029090;28;20038;-80
2022/01/11 09:32:12;;;;;;;14.82;7.88;;;;;;;-11.90;89.35;103247.50;5013957;28;20095;-80
2022/01/11 09:34:39;;;;;;;15.02;8.20;;;;;;;-11.97;88.90;103250.50;5029662;28;20459;-81
2022/01/11 09:37:10;;;;;;;15.52;8.38;;;;;;;-12.12;88.66;103245.94;5018857;28;20048;-80
2022/01/11 09:39:36;;;;;;;16.83;8.82;;;;;;;-12.13;89.67;103255.66;5013368;28;20042;-79
2022/01/11 09:42:05;;;;;;;14.35;7.65;;;;;;;-12.12;89.20;103246.78;5013111;28;20521;-79
2022/01/11 09:44:38;;;;;;;14.70;8.38;;;;;;;-12.13;89.43;103247.72;5029749;28;20046;-79
2022/01/11 09:47:12;;;;;;;10.90;5.75;;;;;;;-12.12;88.80;103245.94;5011665;28;20109;-79
2022/01/11 09:49:39;;;;;;;14.90;6.70;;;;;;;-12.10;88.68;103250.22;5028461;28;20030;-79
2022/01/11 09:52:08;;;;;;;13.98;5.82;;;;;;;-12.02;89.27;103241.91;5010913;28;20029;-79
2022/01/11 09:54:36;;;;;;;11.68;6.03;;;;;;;-12.02;89.19;103241.91;5039259;28;20045;-79
2022/01/11 09:57:03;;;;;;;14.68;6.43;;;;;;;-12.04;88.75;103246.41;5012083;28;20412;-80
2022/01/11 09:59:29;;;;;;;12.98;6.10;;;;;;;-12.08;89.33;103244.84;5028672;28;20621;-80
2022/01/11 10:02:14;;;;;;;15.02;6.63;;;;;;;-12.11;89.14;103237.06;5013286;28;20500;-80
2022/01/11 10:04:59;;;;;;;13.88;6.90;;;;;;;-12.12;88.96;103249.44;5012278;28;20092;-80
2022/01/11 10:07:37;;;;;;;15.38;6.20;;;;;;;-12.20;88.74;103260.34;5013754;28;20185;-80
2022/01/11 10:10:03;;;;;;;14.65;6.70;;;;;;;-12.31;88.54;103256.47;5028475;28;20501;-79
2022/01/11 10:12:50;;;;;;;15.65;6.57;;;;;;;-12.40;88.38;103247.16;5028762;28;20107;-80
2022/01/11 10:15:26;;;;;;;16.75;7.60;;;;;;;-12.46;88.29;103257.16;5028681;28;20642;-79
2022/01/11 10:17:52;;;;;;;19.38;6.70;;;;;;;-12.51;88.51;103255.56;5027582;28;20044;-80
2022/01/11 10:20:25;;;;;;;15.63;6.70;;;;;;;-12.52;88.37;103260.91;5012160;28;20077;-79
2022/01/11 10:23:13;;;;;;;17.33;6.72;;;;;;;-12.58;88.35;103264.69;5016179;28;20073;-79
2022/01/11 10:25:48;;;;;;;11.75;5.82;;;;;;;-12.63;88.21;103260.53;5022073;28;20072;-80
2022/01/11 10:28:15;;;;;;;20.67;6.25;;;;;;;-12.67;88.62;103262.44;5026773;28;20053;-80
2022/01/11 10:30:46;;;;;;;13.15;5.57;;;;;;;-12.74;88.41;103261.00;5009810;28;20050;-79
2022/01/11 10:33:11;;;;;;;16.52;5.97;;;;;;;-12.79;87.99;103266.50;5010229;28;20044;-80
2022/01/11 10:35:44;;;;;;;16.77;6.13;;;;;;;-12.86;88.02;103267.66;5016051;28;20049;-81
2022/01/11 10:38:30;;;;;;;16.58;5.75;;;;;;;-12.93;88.24;103278.56;5033951;28;20097;-79
2022/01/11 10:41:07;;;;;;;13.25;5.32;;;;;;;-13.04;87.68;103273.72;5045147;28;20037;-80
2022/01/11 10:43:42;;;;;;;13.70;6.13;;;;;;;-13.10;88.06;103272.19;5028272;28;20404;-80
2022/01/11 10:46:08;;;;;;;13.88;5.50;;;;;;;-13.11;87.56;103261.69;5020128;28;20064;-80
2022/01/11 10:48:38;;;;;;;11.52;5.55;;;;;;;-13.11;88.11;103264.34;5037240;28;20069;-80
2022/01/11 10:51:04;;;;;;;10.98;4.55;;;;;;;-13.14;87.87;103264.47;5027734;28;20463;-79
2022/01/11 10:53:38;;;;;;;11.60;5.18;;;;;;;-13.22;87.51;103262.16;5006946;28;20042;-79
2022/01/11 10:56:07;;;;;;;15.38;6.28;;;;;;;-13.24;87.65;103264.00;5028128;28;20053;-80
2022/01/11 10:58:38;;;;;;;10.55;4.80;;;;;;;-13.26;87.56;103267.66;5011378;28;20083;-79
2022/01/11 11:01:07;;;;;;;13.18;4.93;;;;;;;-13.26;87.95;103267.66;5027847;28;20049;-78
2022/01/11 11:03:34;;;;;;;10.13;4.68;;;;;;;-13.27;87.96;103272.06;5044109;28;20048;-79
2022/01/11 11:06:11;;;;;;;12.05;4.68;;;;;;;-13.24;87.49;103265.78;5027526;28;20042;-79
2022/01/11 11:08:44;;;;;;;10.90;5.32;;;;;;;-13.28;87.30;103262.44;5015935;28;20029;-78
2022/01/11 11:11:39;;;;;;;10.40;5.05;;;;;;;-13.32;87.54;103268.75;5003166;28;20504;-79
2022/01/11 11:14:13;;;;;;;15.52;5.90;;;;;;;-13.39;87.71;103272.56;5013016;28;20520;-80
2022/01/11 11:16:44;;;;;;;11.05;5.65;;;;;;;-13.45;87.53;103267.53;5028635;28;20045;-79
2022/01/11 11:19:13;;;;;;;9.25;5.10;;;;;;;-13.49;87.90;103266.78;5027313;28;20053;-80